Beausejour, Canada
Current Conditions -  °F | °C
As of 7:00 AM on Sunday 21 Dec 2014 (Local Time) from CYWG Reporting Station
Haze Haze  
Wind Chill: 17°   Ceiling: 600
Heat Index: 28°   Visibility: 2.5mi
Dew Point: 27°   Wind: 14mph
Humidity: 93%   Direction: 180°S
Pressure: 29.68"   Gusts: 21mph
Location:  50.06°N, 96.51°W
Report Text: CYWG 211300Z 18012G18KT 2 1/2SM BR OVC006 M02/M03 A2968 RMK ST8 CIG VRB 004-008 SLP065
Loading
Personal Weather Stations






























Interactive Weather Map New forecast layout! Learn more

10-Day Weather Forecast

Advertisements
Track Severe Weather on mobile